Waldron Airstrip

90WA · Brits-Columbia, Verenigde Staten

METAR historie 90WA · Waldron Airstrip

Hieronder zie je METAR's van de afgelopen dagen. Kies een jaar om door oudere METAR's te bladeren, vanaf het jaar 2007.

1 december 2022

Tijd Code Weer Temp. Zicht Plafond Wind METAR/SPECI
12:15
V
-1 °C 10 mi 3.500 ft 050° 050° 9 - 16 kt SPECI KORS 012015Z AUTO 05009G16KT 010V070 10SM OVC035 M01/M09 A2978 RMK AO2
12:15
V
-1 °C 10 mi 3.500 ft 050° 050° 9 - 16 kt METAR KORS 012015Z AUTO 05009G16KT 010V070 10SM OVC035 M01/M09 A2978 RMK AO2
11:55
V
-1 °C 10 mi 3.500 ft 040° 040° 7 - 15 kt METAR KORS 011955Z AUTO 04007G15KT 010V100 10SM OVC035 M01/M09 A2977 RMK AO2
11:35
V
-1 °C 10 mi 3.700 ft 050° 050° 11 kt METAR KORS 011935Z AUTO 05011KT 010V070 10SM OVC037 M01/M09 A2977 RMK AO2
11:15
V
-1 °C 10 mi 3.600 ft 040° 040° 11 - 20 kt METAR KORS 011915Z AUTO 04011G20KT 10SM OVC036 M01/M10 A2977 RMK AO2
10:55
V
-1 °C 10 mi 3.700 ft 050° 050° 11 - 17 kt METAR KORS 011855Z AUTO 05011G17KT 020V080 10SM OVC037 M01/M09 A2977 RMK AO2
10:35
V
-1 °C 10 mi 3.700 ft 040° 040° 11 - 18 kt METAR KORS 011835Z AUTO 04011G18KT 360V100 10SM OVC037 M01/M09 A2976 RMK AO2
10:15
V
-1 °C 10 mi 3.700 ft 040° 040° 8 - 17 kt METAR KORS 011815Z AUTO 04008G17KT 010V120 10SM OVC037 M01/M09 A2975 RMK AO2
09:55
V
-1 °C 10 mi 3.800 ft 050° 050° 10 - 19 kt METAR KORS 011755Z AUTO 05010G19KT 020V080 10SM OVC038 M01/M09 A2975 RMK AO2
09:35
V
-1 °C 10 mi 3.700 ft 050° 050° 10 - 25 kt METAR KORS 011735Z AUTO 05010G25KT 020V090 10SM OVC037 M01/M09 A2975 RMK AO2
09:15
V
-1 °C 10 mi 3.600 ft 050° 050° 12 - 22 kt METAR KORS 011715Z AUTO 05012G22KT 010V070 10SM OVC036 M01/M09 A2974 RMK AO2
08:35
V
-1 °C 10 mi 3.700 ft 040° 040° 9 - 20 kt METAR KORS 011635Z AUTO 04009G20KT 010V090 10SM OVC037 M01/M09 A2972 RMK AO2
08:15
V
-1 °C 10 mi 3.800 ft 030° 030° 9 - 20 kt METAR KORS 011615Z AUTO 03009G20KT 350V090 10SM OVC038 M01/M09 A2972 RMK AO2
07:55
V
-1 °C 10 mi 3.800 ft 020° 020° 9 - 17 kt METAR KORS 011555Z AUTO 02009G17KT 350V060 10SM OVC038 M01/M09 A2970 RMK AO2
07:35
V
-1 °C 10 mi 3.700 ft 030° 030° 9 - 18 kt METAR KORS 011535Z AUTO 03009G18KT 360V110 10SM OVC037 M01/M09 A2970 RMK AO2
06:55
V
-1 °C 10 mi 3.600 ft 020° 020° 8 - 16 kt METAR KORS 011455Z AUTO 02008G16KT 350V070 10SM OVC036 M01/M08 A2968 RMK AO2
06:35
V
-1 °C 10 mi 3.400 ft Var Var 6 - 15 kt METAR KORS 011435Z AUTO VRB06G15KT 010V080 10SM OVC034 M01/M08 A2967 RMK AO2
06:15
V
-1 °C 10 mi 4.300 ft 040° 040° 9 - 15 kt METAR KORS 011415Z AUTO 04009G15KT 360V080 10SM SCT036 BKN043 OVC090 M01/M08 A2967 RMK AO2
05:55
V
0 °C 10 mi 9.000 ft 030° 030° 8 - 15 kt METAR KORS 011355Z AUTO 03008G15KT 360V060 10SM SCT043 OVC090 M00/M08 A2965 RMK AO2
05:35
V
0 °C 10 mi 9.000 ft 040° 040° 7 - 16 kt METAR KORS 011335Z AUTO 04007G16KT 360V080 10SM SCT044 OVC090 M00/M08 A2965 RMK AO2
05:15
V
0 °C 10 mi 9.000 ft 030° 030° 10 kt METAR KORS 011315Z AUTO 03010KT 360V070 10SM FEW037 SCT043 OVC090 00/M07 A2964 RMK AO2
04:55
V
0 °C 10 mi 4.000 ft 020° 020° 9 - 20 kt METAR KORS 011255Z AUTO 02009G20KT 10SM BKN040 OVC070 00/M08 A2964 RMK AO2
04:35
V
1 °C 10 mi 4.200 ft 050° 050° 10 - 20 kt METAR KORS 011235Z AUTO 05010G20KT 10SM BKN042 OVC100 01/M07 A2963 RMK AO2
04:15
V
1 °C 10 mi 11.000 ft 040° 040° 10 - 18 kt METAR KORS 011215Z AUTO 04010G18KT 360V080 10SM SCT043 OVC110 01/M06 A2962 RMK AO2
03:55
V
1 °C 10 mi 11.000 ft 050° 050° 11 - 18 kt METAR KORS 011155Z AUTO 05011G18KT 020V080 10SM OVC110 01/M06 A2962 RMK AO2
03:35
V
1 °C 10 mi 10.000 ft 040° 040° 8 - 16 kt METAR KORS 011135Z AUTO 04008G16KT 340V110 10SM SCT041 OVC100 01/M06 A2961 RMK AO2
03:15
V
1 °C 10 mi 11.000 ft 030° 030° 7 - 14 kt METAR KORS 011115Z AUTO 03007G14KT 330V070 10SM SCT041 OVC110 01/M05 A2961 RMK AO2
02:55
V
1 °C 10 mi 11.000 ft Var Var 5 - 15 kt METAR KORS 011055Z AUTO VRB05G15KT 10SM OVC110 01/M05 A2961 RMK AO2
02:35
V
1 °C 10 mi 11.000 ft 030° 030° 8 - 17 kt METAR KORS 011035Z AUTO 03008G17KT 360V070 10SM OVC110 01/M04 A2961 RMK AO2
02:15
V
1 °C 10 mi 11.000 ft Var Var 5 - 10 kt METAR KORS 011015Z AUTO VRB05G10KT 10SM OVC110 01/M03 A2960 RMK AO2
01:55
V
1 °C 10 mi 11.000 ft Var Var 4 kt METAR KORS 010955Z AUTO VRB04KT 10SM BKN110 01/M03 A2960 RMK AO2
01:35
V
1 °C 10 mi - Var Var 4 - 10 kt METAR KORS 010935Z AUTO VRB04G10KT 10SM FEW120 01/M02 A2959 RMK AO2
01:15
V
1 °C 10 mi - 020° 020° 4 kt METAR KORS 010915Z AUTO 02004KT 10SM CLR 01/M02 A2958 RMK AO2
00:55
V
1 °C 10 mi - Var Var 4 kt METAR KORS 010855Z AUTO VRB04KT 10SM CLR 01/M01 A2958 RMK AO2
00:35
V
2 °C 10 mi - Var Var 6 kt METAR KORS 010835Z AUTO VRB06KT 10SM CLR 02/M01 A2957 RMK AO2
00:15
V
2 °C 10 mi - Var Var 4 kt METAR KORS 010815Z AUTO VRB04KT 10SM CLR 02/M00 A2956 RMK AO2

30 november 2022

Tijd Code Weer Temp. Zicht Plafond Wind METAR/SPECI
23:55
V
2 °C 10 mi - Var 000° 0 kt METAR KORS 010755Z AUTO 00000KT 10SM CLR 02/00 A2956 RMK AO2
23:35
V
2 °C 10 mi - Var Var 4 kt METAR KORS 010735Z AUTO VRB04KT 10SM CLR 02/00 A2957 RMK AO2
23:15
V
2 °C 10 mi - Var Var 4 - 10 kt METAR KORS 010715Z AUTO VRB04G10KT 10SM CLR 02/M00 A2956 RMK AO2
22:55
V
2 °C 10 mi - 070° 070° 4 kt METAR KORS 010655Z AUTO 07004KT 10SM CLR 02/00 A2956 RMK AO2
22:35
V
2 °C 10 mi - Var Var 5 - 10 kt METAR KORS 010635Z AUTO VRB05G10KT 10SM CLR 02/00 A2956 RMK AO2
22:15
V
3 °C 10 mi - 070° 070° 4 kt METAR KORS 010615Z AUTO 07004KT 10SM CLR 03/00 A2955 RMK AO2
21:55
V
3 °C 10 mi - Var 000° 0 kt METAR KORS 010555Z AUTO 00000KT 10SM CLR 03/00 A2955 RMK AO2
21:35
V
0 °C 9 mi - Var 000° 0 kt METAR KORS 010535Z AUTO 00000KT 9SM SCT020 M00/M01 A2954 RMK AO2
21:15
V
0 °C 10 mi - Var 000° 0 kt METAR KORS 010515Z AUTO 00000KT 10SM FEW020 00/M01 A2955 RMK AO2
20:55
V
0 °C 10 mi - Var 000° 0 kt METAR KORS 010455Z AUTO 00000KT 10SM CLR 00/M01 A2954 RMK AO2
20:35
V
0 °C 10 mi - Var 000° 0 kt METAR KORS 010435Z AUTO 00000KT 10SM CLR 00/M01 A2954 RMK AO2
20:15
V
0 °C 10 mi - Var 000° 0 kt METAR KORS 010415Z AUTO 00000KT 10SM CLR 00/M01 A2954 RMK AO2
19:55
V
1 °C 10 mi - Var 000° 0 kt METAR KORS 010355Z AUTO 00000KT 10SM CLR 01/M01 A2954 RMK AO2
19:35
V
0 °C 10 mi - 180° 180° 4 kt METAR KORS 010335Z AUTO 18004KT 10SM CLR 00/M01 A2953 RMK AO2
19:15
V
0 °C 10 mi - 180° 180° 3 kt METAR KORS 010315Z AUTO 18003KT 10SM CLR 00/M01 A2953 RMK AO2
18:55
V
0 °C 10 mi - Var 000° 0 kt METAR KORS 010255Z AUTO 00000KT 10SM CLR 00/M01 A2953 RMK AO2
18:35
V
1 °C 10 mi - Var 000° 0 kt METAR KORS 010235Z AUTO 00000KT 10SM CLR 01/M01 A2952 RMK AO2
18:15
V
1 °C 9 mi - Var 000° 0 kt METAR KORS 010215Z AUTO 00000KT 9SM CLR 01/M02 A2953 RMK AO2
17:55
V
1 °C 10 mi - Var 000° 0 kt METAR KORS 010155Z AUTO 00000KT 10SM CLR 01/M02 A2952 RMK AO2
17:35
V
1 °C 10 mi - Var 000° 0 kt METAR KORS 010135Z AUTO 00000KT 10SM CLR 01/M02 A2952 RMK AO2
17:15
V
1 °C 10 mi - 180° 180° 3 kt METAR KORS 010115Z AUTO 18003KT 10SM FEW047 01/M01 A2952 RMK AO2
16:55
V
2 °C 10 mi - Var 000° 0 kt METAR KORS 010055Z AUTO 00000KT 10SM CLR 02/M01 A2951 RMK AO2
16:35
V
3 °C 10 mi - Var 000° 0 kt METAR KORS 010035Z AUTO 00000KT 10SM CLR 03/M01 A2951 RMK AO2
16:15
V
3 °C 10 mi - Var 000° 0 kt METAR KORS 010015Z AUTO 00000KT 10SM FEW120 03/M01 A2952 RMK AO2
15:55
V
4 °C 10 mi - Var 000° 0 kt METAR KORS 302355Z AUTO 00000KT 10SM CLR 04/M03 A2952 RMK AO2
15:35
V
5 °C 10 mi - Var 000° 0 kt METAR KORS 302335Z AUTO 00000KT 10SM CLR 05/M03 A2952 RMK AO2
15:15
V
5 °C 10 mi - Var 000° 0 kt METAR KORS 302315Z AUTO 00000KT 10SM FEW055 05/M04 A2952 RMK AO2
14:55
V
5 °C 10 mi - Var 000° 0 kt METAR KORS 302255Z AUTO 00000KT 10SM FEW055 05/M04 A2951 RMK AO2
14:35
V
5 °C 10 mi - Var 000° 0 kt METAR KORS 302235Z AUTO 00000KT 10SM CLR 05/M04 A2951 RMK AO2
14:15
V
5 °C 10 mi - Var 000° 0 kt METAR KORS 302215Z AUTO 00000KT 10SM CLR 05/M03 A2951 RMK AO2
13:55
V
5 °C 10 mi - Var 000° 0 kt METAR KORS 302155Z AUTO 00000KT 10SM CLR 05/M03 A2951 RMK AO2
13:35
V
5 °C 10 mi - Var 000° 0 kt METAR KORS 302135Z AUTO 00000KT 10SM FEW110 05/M03 A2952 RMK AO2
13:15
V
6 °C 10 mi - Var 000° 0 kt METAR KORS 302115Z AUTO 00000KT 10SM FEW110 06/M03 A2952 RMK AO2
12:55
V
6 °C 10 mi - 360° 360° 3 kt METAR KORS 302055Z AUTO 36003KT 10SM CLR 06/M03 A2952 RMK AO2
12:35
V
6 °C 10 mi - Var 000° 0 kt METAR KORS 302035Z AUTO 00000KT 10SM FEW100 06/M03 A2952 RMK AO2
12:15
V
6 °C 10 mi 10.000 ft Var 000° 0 kt METAR KORS 302015Z AUTO 00000KT 10SM BKN100 06/M03 A2952 RMK AO2
11:55
V
5 °C 10 mi 9.500 ft 260° 260° 3 kt METAR KORS 301955Z AUTO 26003KT 10SM BKN095 05/M04 A2952 RMK AO2
11:35
V
5 °C 10 mi - Var 000° 0 kt METAR KORS 301935Z AUTO 00000KT 10SM SCT095 05/M04 A2953 RMK AO2
11:15
V
5 °C 10 mi - Var Var 3 kt METAR KORS 301915Z AUTO VRB03KT 10SM CLR 05/M04 A2952 RMK AO2
10:55
V
5 °C 10 mi - Var Var 3 kt METAR KORS 301855Z AUTO VRB03KT 10SM CLR 05/M04 A2952 RMK AO2
10:35
V
6 °C 10 mi - Var 000° 0 kt METAR KORS 301835Z AUTO 00000KT 10SM CLR 06/M03 A2952 RMK AO2
10:15
V
5 °C 10 mi - Var Var 5 kt METAR KORS 301815Z AUTO VRB05KT 10SM CLR 05/M03 A2951 RMK AO2
09:55
V
5 °C 10 mi - 220° 220° 7 kt METAR KORS 301755Z AUTO 22007KT 10SM CLR 05/M04 A2950 RMK AO2
09:35
V
4 °C 10 mi - 230° 230° 7 kt METAR KORS 301735Z AUTO 23007KT 200V280 10SM CLR 04/M02 A2950 RMK AO2
09:15
V
3 °C 10 mi - 200° 200° 8 kt METAR KORS 301715Z AUTO 20008KT 10SM CLR 03/M01 A2948 RMK AO2
08:55
V
3 °C 9 mi - 180° 180° 9 kt METAR KORS 301655Z AUTO 18009KT 9SM CLR 03/M00 A2948 RMK AO2
08:35
V
4 °C 10 mi - Var 000° 0 kt METAR KORS 301635Z AUTO 00000KT 10SM CLR 04/M01 A2947 RMK AO2
08:15
V
4 °C 10 mi - Var Var 4 - 10 kt METAR KORS 301615Z AUTO VRB04G10KT 10SM CLR 04/M01 A2946 RMK AO2
07:55
V
3 °C 9 mi - 190° 190° 7 kt METAR KORS 301555Z AUTO 19007KT 9SM CLR 03/M00 A2944 RMK AO2
07:35
V
4 °C 10 mi - 180° 180° 13 kt METAR KORS 301535Z AUTO 18013KT 10SM FEW030 04/M00 A2941 RMK AO2
07:15
V
3 °C 10 mi - 190° 190° 10 kt METAR KORS 301515Z AUTO 19010KT 10SM SCT030 SCT036 03/01 A2942 RMK AO2
06:55
V
4 °C 10 mi - Var Var 6 - 13 kt METAR KORS 301455Z AUTO VRB06G13KT 10SM SCT034 04/01 A2941 RMK AO2
06:35
V
4 °C 10 mi - 180° 180° 9 - 16 kt METAR KORS 301435Z AUTO 18009G16KT 10SM CLR 04/02 A2939 RMK AO2
06:15
V
4 °C 10 mi - 190° 190° 14 kt METAR KORS 301415Z AUTO 19014KT 10SM CLR 04/03 A2936 RMK AO2
05:55
V
4 °C 10 mi - 200° 200° 12 kt METAR KORS 301355Z AUTO 20012KT 10SM FEW011 FEW016 FEW027 04/04 A2936 RMK AO2 P0001
05:35
M
4 °C 10 mi 1.200 ft 180° 180° 9 - 18 kt METAR KORS 301335Z AUTO 18009G18KT 10SM FEW007 BKN012 OVC050 04/04 A2936 RMK AO2
05:15
I
4 °C 5 mi 900 ft 160° 160° 11 kt METAR KORS 301315Z AUTO 16011KT 5SM -RA BR BKN009 BKN018 OVC034 04/04 A2936 RMK AO2
04:55
M
4 °C 9 mi 1.000 ft 170° 170° 9 - 16 kt METAR KORS 301255Z AUTO 17009G16KT 9SM BKN010 OVC020 04/03 A2937 RMK AO2 P0005
04:35
M
4 °C 5 mi 1.100 ft 180° 180° 10 - 15 kt SPECI KORS 301235Z AUTO 18010G15KT 5SM UP BR OVC011 04/03 A2936 RMK AO2
04:15
M
4 °C 7 mi 1.100 ft 160° 160° 11 kt METAR KORS 301215Z AUTO 16011KT 7SM -RA BKN011 OVC019 04/03 A2936 RMK AO2
03:55
M
3 °C 7 mi 1.100 ft 170° 170° 10 - 17 kt METAR KORS 301155Z AUTO 17010G17KT 7SM UP BKN011 BKN018 OVC027 03/02 A2935 RMK AO2
03:35
M
3 °C 6 mi 2.900 ft 170° 170° 11 - 16 kt METAR KORS 301135Z AUTO 17011G16KT 6SM UP BR SCT012 BKN029 OVC036 03/02 A2935 RMK AO2
03:15
M
3 °C 9 mi 1.300 ft 160° 160° 10 - 21 kt METAR KORS 301115Z AUTO 16010G21KT 9SM UP BKN013 BKN019 OVC031 03/02 A2935 RMK AO2
02:55
M
3 °C 10 mi 1.300 ft 160° 160° 11 - 17 kt METAR KORS 301055Z AUTO 16011G17KT 10SM BKN013 BKN019 OVC032 03/02 A2935 RMK AO2
02:35
M
3 °C 10 mi 1.200 ft 180° 180° 14 kt METAR KORS 301035Z AUTO 18014KT 10SM BKN012 BKN018 OVC032 03/02 A2936 RMK AO2
02:15
M
3 °C 10 mi 1.400 ft 180° 180° 16 - 22 kt METAR KORS 301015Z AUTO 18016G22KT 10SM OVC014 03/02 A2935 RMK AO2
01:55
M
3 °C 7 mi 1.200 ft 170° 170° 12 - 22 kt METAR KORS 300955Z AUTO 17012G22KT 7SM -SN BKN012 OVC016 03/02 A2935 RMK AO2 P0005
01:35
M
3 °C 4 mi 1.100 ft 170° 170° 12 - 20 kt METAR KORS 300935Z AUTO 17012G20KT 4SM BR BKN011 OVC018 03/02 A2937 RMK AO2
01:15
M
4 °C 4 mi 1.400 ft 160° 160° 16 - 23 kt METAR KORS 300915Z AUTO 16016G23KT 140V200 4SM BR BKN014 OVC020 04/02 A2937 RMK AO2
00:55
M
4 °C 5 mi 1.500 ft 170° 170° 15 - 21 kt METAR KORS 300855Z AUTO 17015G21KT 5SM BR OVC015 04/03 A2938 RMK AO2 P0006
00:35
M
4 °C 4 mi 1.400 ft 170° 170° 11 - 22 kt METAR KORS 300835Z AUTO 17011G22KT 4SM BR OVC014 04/03 A2938 RMK AO2
00:15
M
4 °C 4 mi 1.500 ft 170° 170° 16 - 26 kt METAR KORS 300815Z AUTO 17016G26KT 4SM BR OVC015 04/02 A2938 RMK AO2

29 november 2022

Tijd Code Weer Temp. Zicht Plafond Wind METAR/SPECI
23:55
M
4 °C 10 mi 1.500 ft 170° 170° 15 - 26 kt METAR KORS 300755Z AUTO 17015G26KT 10SM UP OVC015 04/02 A2938 RMK AO2
23:35
M
4 °C 10 mi 1.400 ft 160° 160° 14 - 23 kt METAR KORS 300735Z AUTO 16014G23KT 10SM OVC014 04/03 A2938 RMK AO2
23:15
M
4 °C 10 mi 1.300 ft 170° 170° 17 - 24 kt METAR KORS 300715Z AUTO 17017G24KT 130V190 10SM OVC013 04/02 A2940 RMK AO2
22:55
M
4 °C 10 mi 1.300 ft 160° 160° 14 - 25 kt METAR KORS 300655Z AUTO 16014G25KT 10SM BKN013 BKN017 OVC045 04/03 A2940 RMK AO2 P0001
22:35
M
4 °C 8 mi 1.400 ft 170° 170° 14 - 28 kt METAR KORS 300635Z AUTO 17014G28KT 8SM BKN014 BKN020 OVC047 04/03 A2940 RMK AO2
22:15
M
4 °C 6 mi 1.300 ft 160° 160° 10 - 21 kt METAR KORS 300615Z AUTO 16010G21KT 130V190 6SM BR OVC013 04/02 A2942 RMK AO2
21:55
M
3 °C 5 mi 1.400 ft 170° 170° 14 - 23 kt METAR KORS 300555Z AUTO 17014G23KT 130V210 5SM BR OVC014 03/02 A2942 RMK AO2 P0001
21:35
M
4 °C 9 mi 1.500 ft 160° 160° 16 - 25 kt METAR KORS 300535Z AUTO 16016G25KT 9SM OVC015 04/02 A2942 RMK AO2
21:15
M
4 °C 9 mi 1.400 ft 160° 160° 17 - 26 kt METAR KORS 300515Z AUTO 16017G26KT 9SM OVC014 04/02 A2942 RMK AO2
20:55
M
4 °C 8 mi 1.500 ft 160° 160° 15 - 28 kt METAR KORS 300455Z AUTO 16015G28KT 8SM OVC015 04/02 A2942 RMK AO2 P0002
20:35
M
4 °C 5 mi 1.400 ft 170° 170° 21 - 34 kt METAR KORS 300435Z AUTO 17021G34KT 5SM BR BKN014 BKN018 OVC035 04/02 A2942 RMK AO2
20:15
M
4 °C 8 mi 1.500 ft 160° 160° 23 - 41 kt METAR KORS 300415Z AUTO 16023G41KT 8SM OVC015 04/02 A2942 RMK AO2
19:55
M
4 °C 5 mi 1.700 ft 160° 160° 23 - 34 kt METAR KORS 300355Z AUTO 16023G34KT 5SM BR BKN017 OVC021 04/03 A2942 RMK AO2 P0003
19:35
M
4 °C 5 mi 1.600 ft 160° 160° 19 - 32 kt METAR KORS 300335Z AUTO 16019G32KT 5SM BR BKN016 OVC021 04/03 A2943 RMK AO2
19:15
M
4 °C 5 mi 1.500 ft 160° 160° 21 - 34 kt METAR KORS 300315Z AUTO 16021G34KT 5SM BR BKN015 OVC021 04/02 A2943 RMK AO2
18:55
M
4 °C 4 mi 1.400 ft 170° 170° 17 - 30 kt METAR KORS 300255Z AUTO 17017G30KT 140V200 4SM BR BKN014 BKN019 OVC024 04/02 A2944 RMK AO2 P0004
18:35
M
4 °C 7 mi 1.800 ft 150° 150° 21 - 32 kt METAR KORS 300235Z AUTO 15021G32KT 7SM BKN018 OVC024 04/02 A2945 RMK AO2
18:15
M
4 °C 7 mi 1.700 ft 150° 150° 17 - 25 kt METAR KORS 300215Z AUTO 15017G25KT 7SM UP BKN017 OVC023 04/02 A2947 RMK AO2
17:55
M
4 °C 7 mi 1.900 ft 150° 150° 13 - 30 kt METAR KORS 300155Z AUTO 15013G30KT 130V190 7SM -RA SCT013 BKN019 OVC027 04/01 A2951 RMK AO2
17:35
M
4 °C 9 mi 2.700 ft 130° 130° 13 - 31 kt METAR KORS 300135Z AUTO 13013G31KT 110V170 9SM -RA SCT021 OVC027 04/01 A2953 RMK AO2
17:15
M
4 °C 10 mi 2.800 ft 140° 140° 17 - 31 kt METAR KORS 300115Z AUTO 14017G31KT 10SM FEW021 BKN028 OVC040 04/01 A2956 RMK AO2
16:55
M
4 °C 10 mi 2.700 ft 140° 140° 15 - 30 kt METAR KORS 300055Z AUTO 14015G30KT 110V170 10SM SCT021 BKN027 OVC040 04/01 A2958 RMK AO2
16:35
M
4 °C 9 mi 2.100 ft 140° 140° 13 - 27 kt METAR KORS 300035Z AUTO 14013G27KT 120V180 9SM -RA BKN021 OVC028 04/01 A2959 RMK AO2
16:15
M
3 °C 7 mi 2.100 ft 150° 150° 21 - 32 kt METAR KORS 300015Z AUTO 15021G32KT 7SM -RA BKN021 OVC027 03/00 A2962 RMK AO2
15:55
M
3 °C 10 mi 2.000 ft 140° 140° 17 - 28 kt METAR KORS 292355Z AUTO 14017G28KT 10SM -RA BKN020 OVC027 03/00 A2965 RMK AO2
15:35
M
3 °C 10 mi 2.600 ft 150° 150° 13 - 25 kt METAR KORS 292335Z AUTO 15013G25KT 090V180 10SM SCT021 BKN026 OVC031 03/00 A2968 RMK AO2
15:15
V
3 °C 7 mi 3.100 ft 090° 090° 7 - 20 kt METAR KORS 292315Z AUTO 09007G20KT 020V170 7SM -RA FEW020 SCT026 BKN031 03/00 A2970 RMK AO2
14:55
M
3 °C 8 mi 2.300 ft Var Var 8 - 14 kt METAR KORS 292255Z AUTO VRB08G14KT 8SM -RA SCT018 BKN023 BKN029 03/00 A2972 RMK AO2
14:35
M
2 °C 8 mi 1.800 ft Var 000° 0 kt METAR KORS 292235Z AUTO 00000KT 8SM -RA BKN018 OVC022 02/00 A2975 RMK AO2
14:15
M
2 °C 5 mi 1.800 ft Var Var 3 - 10 kt METAR KORS 292215Z AUTO VRB03G10KT 5SM -SN HZ BKN018 02/M00 A2978 RMK AO2
13:55
I
2 °C 3 mi 1.800 ft Var Var 6 - 13 kt METAR KORS 292155Z AUTO VRB06G13KT 3SM -SN HZ BKN018 02/M00 A2981 RMK AO2
13:35
M
2 °C 10 mi 1.800 ft Var Var 6 kt METAR KORS 292135Z AUTO VRB06KT 10SM OVC018 02/M01 A2982 RMK AO2
13:15
M
2 °C 5 mi 1.800 ft Var Var 4 kt METAR KORS 292115Z AUTO VRB04KT 5SM -SN HZ OVC018 02/M01 A2984 RMK AO2
12:55
M
2 °C 9 mi 1.800 ft Var Var 6 kt METAR KORS 292055Z AUTO VRB06KT 050V180 9SM UP OVC018 02/M02 A2986 RMK AO2
12:35
M
2 °C 6 mi 2.000 ft Var Var 5 - 14 kt METAR KORS 292035Z AUTO VRB05G14KT 6SM UP HZ BKN020 OVC050 02/M01 A2988 RMK AO2
12:15
M
2 °C 9 mi 2.200 ft Var Var 5 - 11 kt METAR KORS 292015Z AUTO VRB05G11KT 9SM UP OVC022 02/M02 A2989 RMK AO2
11:55
M
2 °C 10 mi 2.400 ft 130° 130° 5 - 12 kt METAR KORS 291955Z AUTO 13005G12KT 10SM OVC024 02/M03 A2990 RMK AO2
11:35
M
2 °C 10 mi 2.600 ft Var 000° 0 kt METAR KORS 291935Z AUTO 00000KT 10SM OVC026 02/M04 A2992 RMK AO2
11:15
M
2 °C 10 mi 2.700 ft Var Var 5 kt METAR KORS 291915Z AUTO VRB05KT 10SM OVC027 02/M04 A2994 RMK AO2
10:55
V
2 °C 10 mi 3.000 ft 180° 180° 4 kt METAR KORS 291855Z AUTO 18004KT 10SM BKN030 BKN060 02/M04 A2995 RMK AO2
10:35
V
1 °C 10 mi 6.000 ft Var Var 5 kt METAR KORS 291835Z AUTO VRB05KT 10SM SCT033 BKN060 01/M05 A2996 RMK AO2
10:15
V
1 °C 10 mi 3.300 ft Var Var 5 kt METAR KORS 291815Z AUTO VRB05KT 10SM BKN033 OVC060 01/M05 A2997 RMK AO2
09:55
V
0 °C 10 mi 3.100 ft Var Var 5 - 13 kt METAR KORS 291755Z AUTO VRB05G13KT 10SM OVC031 00/M05 A2997 RMK AO2
09:35
M
0 °C 10 mi 2.900 ft Var Var 7 - 12 kt METAR KORS 291735Z AUTO VRB07G12KT 10SM OVC029 M00/M05 A2997 RMK AO2
09:15
M
0 °C 10 mi 2.900 ft Var Var 4 - 10 kt METAR KORS 291715Z AUTO VRB04G10KT 10SM OVC029 00/M05 A2998 RMK AO2
08:55
V
1 °C 10 mi 3.100 ft 070° 070° 7 - 13 kt METAR KORS 291655Z AUTO 07007G13KT 030V110 10SM BKN031 OVC047 01/M04 A2998 RMK AO2
08:35
V
0 °C 10 mi 4.800 ft 050° 050° 6 kt METAR KORS 291635Z AUTO 05006KT 10SM FEW030 BKN048 OVC055 00/M04 A2998 RMK AO2
08:15
V
0 °C 10 mi 5.500 ft Var Var 4 kt METAR KORS 291615Z AUTO VRB04KT 10SM FEW037 OVC055 00/M04 A2999 RMK AO2
07:55
V
-1 °C 10 mi 7.000 ft Var 000° 0 kt METAR KORS 291555Z AUTO 00000KT 10SM FEW038 SCT055 OVC070 M01/M05 A3000 RMK AO2
07:35
V
0 °C 10 mi 7.000 ft Var 000° 0 kt METAR KORS 291535Z AUTO 00000KT 10SM FEW046 SCT060 BKN070 M00/M05 A3000 RMK AO2
07:15
V
-1 °C 10 mi 5.500 ft Var 000° 0 kt METAR KORS 291515Z AUTO 00000KT 10SM BKN055 OVC080 M01/M05 A3000 RMK AO2
06:55
V
-1 °C 10 mi 8.000 ft Var 000° 0 kt METAR KORS 291455Z AUTO 00000KT 10SM SCT055 OVC080 M01/M05 A2999 RMK AO2
06:35
V
-1 °C 10 mi 7.500 ft Var 000° 0 kt METAR KORS 291435Z AUTO 00000KT 10SM OVC075 M01/M05 A3000 RMK AO2
06:15
V
0 °C 10 mi 7.500 ft Var 000° 0 kt METAR KORS 291415Z AUTO 00000KT 10SM FEW065 OVC075 M00/M06 A3000 RMK AO2
05:55
V
0 °C 10 mi 6.000 ft Var 000° 0 kt METAR KORS 291355Z AUTO 00000KT 10SM BKN060 OVC075 00/M06 A3000 RMK AO2
05:35
V
0 °C 10 mi 6.000 ft Var 000° 0 kt METAR KORS 291335Z AUTO 00000KT 10SM OVC060 M00/M05 A3001 RMK AO2
05:15
V
0 °C 10 mi 6.000 ft Var Var 4 kt METAR KORS 291315Z AUTO VRB04KT 10SM OVC060 M00/M05 A3002 RMK AO2
04:55
V
-1 °C 10 mi 6.000 ft Var 000° 0 kt METAR KORS 291255Z AUTO 00000KT 10SM BKN060 BKN070 OVC110 M01/M06 A3002 RMK AO2
04:35
V
-1 °C 10 mi 11.000 ft Var Var 4 kt METAR KORS 291235Z AUTO VRB04KT 10SM SCT070 BKN110 M01/M06 A3003 RMK AO2
04:15
V
-1 °C 10 mi - Var 000° 0 kt METAR KORS 291215Z AUTO 00000KT 10SM SCT070 M01/M06 A3004 RMK AO2
03:55
V
-1 °C 10 mi - 080° 080° 3 kt METAR KORS 291155Z AUTO 08003KT 10SM CLR M01/M07 A3005 RMK AO2
03:35
V
-1 °C 10 mi - 060° 060° 3 kt METAR KORS 291135Z AUTO 06003KT 10SM CLR M01/M07 A3005 RMK AO2
03:15
V
-1 °C 10 mi - 060° 060° 3 kt METAR KORS 291115Z AUTO 06003KT 10SM CLR M01/M08 A3004 RMK AO2
02:55
V
-1 °C 10 mi - Var 000° 0 kt METAR KORS 291055Z AUTO 00000KT 10SM CLR M01/M08 A3004 RMK AO2
02:35
V
-1 °C 10 mi - 070° 070° 4 kt METAR KORS 291035Z AUTO 07004KT 10SM CLR M01/M09 A3004 RMK AO2
02:15
V
-1 °C 10 mi - 050° 050° 4 kt METAR KORS 291015Z AUTO 05004KT 10SM CLR M01/M09 A3005 RMK AO2
01:55
V
-1 °C 10 mi - Var Var 5 kt METAR KORS 290955Z AUTO VRB05KT 10SM CLR M01/M09 A3004 RMK AO2

Wij en derden volgen je internetgedrag op onze website met cookies. Als je doorgaat, gaan we ervan uit dat je akkoord gaat met onze cookiebeleid.